sensor_id;sensor_type;location;lat;lon;timestamp;P1;durP1;ratioP1;P2;durP2;ratioP2
72065;SDS011;59939;52.516;13.420;2023-03-22T00:01:20;106.57;;;97.90;;
72065;SDS011;59939;52.516;13.420;2023-03-22T00:04:24;101.40;;;94.00;;
72065;SDS011;59939;52.516;13.420;2023-03-22T00:07:29;106.10;;;97.73;;
72065;SDS011;59939;52.516;13.420;2023-03-22T00:10:35;107.03;;;98.83;;
72065;SDS011;59939;52.516;13.420;2023-03-22T00:13:39;103.63;;;96.10;;
72065;SDS011;59939;52.516;13.420;2023-03-22T00:16:46;102.53;;;94.63;;
72065;SDS011;59939;52.516;13.420;2023-03-22T00:19:51;109.00;;;99.67;;
72065;SDS011;59939;52.516;13.420;2023-03-22T00:22:56;103.83;;;96.17;;
72065;SDS011;59939;52.516;13.420;2023-03-22T00:26:00;109.57;;;100.83;;
72065;SDS011;59939;52.516;13.420;2023-03-22T00:29:04;110.03;;;101.63;;
72065;SDS011;59939;52.516;13.420;2023-03-22T00:32:08;111.50;;;102.57;;
72065;SDS011;59939;52.516;13.420;2023-03-22T00:35:13;111.67;;;103.13;;
72065;SDS011;59939;52.516;13.420;2023-03-22T00:38:16;115.03;;;105.73;;
72065;SDS011;59939;52.516;13.420;2023-03-22T00:41:21;113.60;;;104.80;;
72065;SDS011;59939;52.516;13.420;2023-03-22T00:44:25;114.00;;;104.77;;
72065;SDS011;59939;52.516;13.420;2023-03-22T00:47:29;104.77;;;97.37;;
72065;SDS011;59939;52.516;13.420;2023-03-22T00:50:33;109.00;;;101.07;;
72065;SDS011;59939;52.516;13.420;2023-03-22T00:53:37;109.47;;;101.03;;
72065;SDS011;59939;52.516;13.420;2023-03-22T00:56:44;107.93;;;99.73;;
72065;SDS011;59939;52.516;13.420;2023-03-22T00:59:53;117.37;;;107.50;;
72065;SDS011;59939;52.516;13.420;2023-03-22T01:02:58;108.73;;;100.50;;
72065;SDS011;59939;52.516;13.420;2023-03-22T01:06:07;113.33;;;104.77;;
72065;SDS011;59939;52.516;13.420;2023-03-22T01:09:11;112.37;;;103.90;;
72065;SDS011;59939;52.516;13.420;2023-03-22T01:12:18;111.40;;;102.50;;
72065;SDS011;59939;52.516;13.420;2023-03-22T01:15:22;111.93;;;103.40;;
72065;SDS011;59939;52.516;13.420;2023-03-22T01:18:27;116.27;;;107.10;;
72065;SDS011;59939;52.516;13.420;2023-03-22T01:21:31;113.97;;;104.23;;
72065;SDS011;59939;52.516;13.420;2023-03-22T01:24:35;110.93;;;102.50;;
72065;SDS011;59939;52.516;13.420;2023-03-22T01:27:41;109.03;;;100.70;;
72065;SDS011;59939;52.516;13.420;2023-03-22T01:30:48;114.57;;;105.43;;
72065;SDS011;59939;52.516;13.420;2023-03-22T01:33:53;110.00;;;101.67;;
72065;SDS011;59939;52.516;13.420;2023-03-22T01:36:59;115.03;;;106.10;;
72065;SDS011;59939;52.516;13.420;2023-03-22T01:40:04;114.13;;;105.10;;
72065;SDS011;59939;52.516;13.420;2023-03-22T01:43:11;114.03;;;105.03;;
72065;SDS011;59939;52.516;13.420;2023-03-22T01:46:16;115.37;;;106.47;;
72065;SDS011;59939;52.516;13.420;2023-03-22T01:49:28;117.63;;;108.70;;
72065;SDS011;59939;52.516;13.420;2023-03-22T01:52:45;115.77;;;106.43;;
72065;SDS011;59939;52.516;13.420;2023-03-22T01:55:58;113.27;;;104.47;;
72065;SDS011;59939;52.516;13.420;2023-03-22T01:59:08;113.00;;;104.07;;
72065;SDS011;59939;52.516;13.420;2023-03-22T02:02:43;110.93;;;101.90;;
72065;SDS011;59939;52.516;13.420;2023-03-22T02:06:01;109.23;;;100.90;;
72065;SDS011;59939;52.516;13.420;2023-03-22T02:09:08;111.60;;;102.73;;
72065;SDS011;59939;52.516;13.420;2023-03-22T02:12:26;110.63;;;102.10;;
72065;SDS011;59939;52.516;13.420;2023-03-22T02:15:42;111.90;;;103.30;;
72065;SDS011;59939;52.516;13.420;2023-03-22T02:25:49;112.47;;;104.17;;
72065;SDS011;59939;52.516;13.420;2023-03-22T02:29:10;111.17;;;102.80;;
72065;SDS011;59939;52.516;13.420;2023-03-22T02:32:26;114.07;;;104.90;;
72065;SDS011;59939;52.516;13.420;2023-03-22T02:42:07;109.73;;;101.83;;
72065;SDS011;59939;52.516;13.420;2023-03-22T02:45:15;108.83;;;100.73;;
72065;SDS011;59939;52.516;13.420;2023-03-22T02:48:25;107.23;;;99.40;;
72065;SDS011;59939;52.516;13.420;2023-03-22T02:51:36;106.53;;;98.97;;
72065;SDS011;59939;52.516;13.420;2023-03-22T02:54:44;111.57;;;103.27;;
72065;SDS011;59939;52.516;13.420;2023-03-22T02:57:56;105.83;;;98.03;;
72065;SDS011;59939;52.516;13.420;2023-03-22T03:01:02;104.60;;;96.77;;
72065;SDS011;59939;52.516;13.420;2023-03-22T03:04:11;105.40;;;97.60;;
72065;SDS011;59939;52.516;13.420;2023-03-22T03:07:18;103.37;;;96.23;;
72065;SDS011;59939;52.516;13.420;2023-03-22T03:10:26;105.93;;;98.10;;
72065;SDS011;59939;52.516;13.420;2023-03-22T03:13:31;100.70;;;93.10;;
72065;SDS011;59939;52.516;13.420;2023-03-22T03:16:50;94.43;;;87.53;;
72065;SDS011;59939;52.516;13.420;2023-03-22T03:26:57;77.07;;;71.70;;
72065;SDS011;59939;52.516;13.420;2023-03-22T03:30:18;87.17;;;80.43;;
72065;SDS011;59939;52.516;13.420;2023-03-22T03:33:24;84.47;;;77.60;;
72065;SDS011;59939;52.516;13.420;2023-03-22T03:36:28;78.73;;;72.43;;
72065;SDS011;59939;52.516;13.420;2023-03-22T03:39:34;78.30;;;72.07;;
72065;SDS011;59939;52.516;13.420;2023-03-22T03:42:41;80.20;;;73.50;;
72065;SDS011;59939;52.516;13.420;2023-03-22T03:45:46;69.30;;;64.07;;
72065;SDS011;59939;52.516;13.420;2023-03-22T03:48:58;67.17;;;61.37;;
72065;SDS011;59939;52.516;13.420;2023-03-22T03:52:02;63.87;;;58.13;;
72065;SDS011;59939;52.516;13.420;2023-03-22T03:55:08;55.57;;;50.57;;
72065;SDS011;59939;52.516;13.420;2023-03-22T03:58:13;51.20;;;46.23;;
72065;SDS011;59939;52.516;13.420;2023-03-22T04:01:19;47.53;;;42.63;;
72065;SDS011;59939;52.516;13.420;2023-03-22T04:04:40;47.77;;;42.37;;
72065;SDS011;59939;52.516;13.420;2023-03-22T04:07:45;42.40;;;34.00;;
72065;SDS011;59939;52.516;13.420;2023-03-22T04:10:49;38.10;;;31.33;;
72065;SDS011;59939;52.516;13.420;2023-03-22T04:13:57;34.97;;;27.13;;
72065;SDS011;59939;52.516;13.420;2023-03-22T04:17:03;45.00;;;34.43;;
72065;SDS011;59939;52.516;13.420;2023-03-22T04:20:14;41.40;;;27.67;;
72065;SDS011;59939;52.516;13.420;2023-03-22T04:23:26;36.97;;;25.27;;
72065;SDS011;59939;52.516;13.420;2023-03-22T04:26:31;36.50;;;27.20;;
72065;SDS011;59939;52.516;13.420;2023-03-22T04:29:51;33.40;;;21.90;;
72065;SDS011;59939;52.516;13.420;2023-03-22T04:33:22;31.10;;;19.83;;
72065;SDS011;59939;52.516;13.420;2023-03-22T04:36:45;36.23;;;25.33;;
72065;SDS011;59939;52.516;13.420;2023-03-22T04:40:03;38.97;;;25.73;;
72065;SDS011;59939;52.516;13.420;2023-03-22T04:43:22;34.83;;;21.97;;
72065;SDS011;59939;52.516;13.420;2023-03-22T04:46:37;34.97;;;22.90;;
72065;SDS011;59939;52.516;13.420;2023-03-22T04:49:42;35.83;;;20.97;;
72065;SDS011;59939;52.516;13.420;2023-03-22T04:52:48;30.87;;;18.23;;
72065;SDS011;59939;52.516;13.420;2023-03-22T04:55:53;37.30;;;21.77;;
72065;SDS011;59939;52.516;13.420;2023-03-22T04:59:01;36.13;;;21.80;;
72065;SDS011;59939;52.516;13.420;2023-03-22T05:02:07;28.10;;;14.57;;
72065;SDS011;59939;52.516;13.420;2023-03-22T05:05:18;35.90;;;21.13;;
72065;SDS011;59939;52.516;13.420;2023-03-22T05:08:26;31.77;;;19.17;;
72065;SDS011;59939;52.516;13.420;2023-03-22T05:11:33;38.20;;;20.87;;
72065;SDS011;59939;52.516;13.420;2023-03-22T05:14:52;34.93;;;19.27;;
72065;SDS011;59939;52.516;13.420;2023-03-22T05:18:03;29.47;;;17.37;;
72065;SDS011;59939;52.516;13.420;2023-03-22T05:21:10;32.13;;;17.67;;
72065;SDS011;59939;52.516;13.420;2023-03-22T05:24:14;32.10;;;18.57;;
72065;SDS011;59939;52.516;13.420;2023-03-22T05:27:34;35.20;;;17.67;;
72065;SDS011;59939;52.516;13.420;2023-03-22T05:30:55;34.83;;;18.47;;
72065;SDS011;59939;52.516;13.420;2023-03-22T05:34:13;39.30;;;19.93;;
72065;SDS011;59939;52.516;13.420;2023-03-22T05:37:18;40.03;;;19.33;;
72065;SDS011;59939;52.516;13.420;2023-03-22T05:40:28;37.43;;;18.27;;
72065;SDS011;59939;52.516;13.420;2023-03-22T05:43:31;32.33;;;16.40;;
72065;SDS011;59939;52.516;13.420;2023-03-22T05:46:36;31.73;;;17.97;;
72065;SDS011;59939;52.516;13.420;2023-03-22T05:50:03;37.10;;;19.20;;
72065;SDS011;59939;52.516;13.420;2023-03-22T05:53:09;38.43;;;18.73;;
72065;SDS011;59939;52.516;13.420;2023-03-22T05:56:29;37.27;;;20.23;;
72065;SDS011;59939;52.516;13.420;2023-03-22T05:59:41;34.30;;;18.03;;
72065;SDS011;59939;52.516;13.420;2023-03-22T06:02:51;37.93;;;20.87;;
72065;SDS011;59939;52.516;13.420;2023-03-22T06:05:59;27.67;;;12.27;;
72065;SDS011;59939;52.516;13.420;2023-03-22T06:09:13;35.80;;;17.20;;
72065;SDS011;59939;52.516;13.420;2023-03-22T06:12:28;36.87;;;17.87;;
72065;SDS011;59939;52.516;13.420;2023-03-22T06:15:42;36.30;;;19.53;;
72065;SDS011;59939;52.516;13.420;2023-03-22T06:19:02;37.43;;;20.10;;
72065;SDS011;59939;52.516;13.420;2023-03-22T06:22:15;36.97;;;20.03;;
72065;SDS011;59939;52.516;13.420;2023-03-22T06:25:21;35.97;;;19.23;;
72065;SDS011;59939;52.516;13.420;2023-03-22T06:28:26;37.23;;;18.60;;
72065;SDS011;59939;52.516;13.420;2023-03-22T06:31:32;33.80;;;17.50;;
72065;SDS011;59939;52.516;13.420;2023-03-22T06:34:41;35.37;;;18.60;;
72065;SDS011;59939;52.516;13.420;2023-03-22T06:37:46;37.33;;;19.70;;
72065;SDS011;59939;52.516;13.420;2023-03-22T06:40:53;39.83;;;20.53;;
72065;SDS011;59939;52.516;13.420;2023-03-22T06:43:59;34.87;;;18.80;;
72065;SDS011;59939;52.516;13.420;2023-03-22T06:47:29;31.80;;;17.40;;
72065;SDS011;59939;52.516;13.420;2023-03-22T06:51:02;32.73;;;19.57;;
72065;SDS011;59939;52.516;13.420;2023-03-22T06:54:09;32.17;;;17.77;;
72065;SDS011;59939;52.516;13.420;2023-03-22T07:00:45;33.67;;;18.47;;
72065;SDS011;59939;52.516;13.420;2023-03-22T07:03:55;33.37;;;20.10;;
72065;SDS011;59939;52.516;13.420;2023-03-22T07:07:07;39.67;;;19.63;;
72065;SDS011;59939;52.516;13.420;2023-03-22T07:10:13;33.83;;;19.03;;
72065;SDS011;59939;52.516;13.420;2023-03-22T07:13:17;35.97;;;18.40;;
72065;SDS011;59939;52.516;13.420;2023-03-22T07:16:23;31.30;;;18.73;;
72065;SDS011;59939;52.516;13.420;2023-03-22T07:19:43;32.40;;;18.07;;
72065;SDS011;59939;52.516;13.420;2023-03-22T07:22:48;32.50;;;17.47;;
72065;SDS011;59939;52.516;13.420;2023-03-22T07:25:54;29.33;;;16.07;;
72065;SDS011;59939;52.516;13.420;2023-03-22T07:29:10;31.17;;;18.20;;
72065;SDS011;59939;52.516;13.420;2023-03-22T07:32:16;33.47;;;17.47;;
72065;SDS011;59939;52.516;13.420;2023-03-22T07:35:40;30.23;;;17.20;;
72065;SDS011;59939;52.516;13.420;2023-03-22T07:38:45;28.00;;;17.30;;
72065;SDS011;59939;52.516;13.420;2023-03-22T07:41:55;31.80;;;16.37;;
72065;SDS011;59939;52.516;13.420;2023-03-22T07:44:59;30.47;;;17.93;;
72065;SDS011;59939;52.516;13.420;2023-03-22T07:52:10;29.93;;;18.60;;
72065;SDS011;59939;52.516;13.420;2023-03-22T07:55:14;28.97;;;18.37;;
72065;SDS011;59939;52.516;13.420;2023-03-22T07:58:18;29.50;;;18.03;;
72065;SDS011;59939;52.516;13.420;2023-03-22T08:01:22;27.90;;;15.70;;
72065;SDS011;59939;52.516;13.420;2023-03-22T08:04:42;27.93;;;16.37;;
72065;SDS011;59939;52.516;13.420;2023-03-22T08:07:53;21.57;;;12.70;;
72065;SDS011;59939;52.516;13.420;2023-03-22T08:10:59;20.57;;;12.43;;
72065;SDS011;59939;52.516;13.420;2023-03-22T08:14:04;28.37;;;17.27;;
72065;SDS011;59939;52.516;13.420;2023-03-22T08:17:10;22.60;;;14.13;;
72065;SDS011;59939;52.516;13.420;2023-03-22T08:20:15;29.00;;;15.50;;
72065;SDS011;59939;52.516;13.420;2023-03-22T08:23:26;28.00;;;16.50;;
72065;SDS011;59939;52.516;13.420;2023-03-22T08:27:18;23.47;;;14.30;;
72065;SDS011;59939;52.516;13.420;2023-03-22T08:30:27;25.73;;;16.60;;
72065;SDS011;59939;52.516;13.420;2023-03-22T08:33:32;23.57;;;15.53;;
72065;SDS011;59939;52.516;13.420;2023-03-22T08:36:36;26.20;;;15.53;;
72065;SDS011;59939;52.516;13.420;2023-03-22T08:39:43;24.10;;;13.75;;
72065;SDS011;59939;52.516;13.420;2023-03-22T08:43:08;21.43;;;13.13;;
72065;SDS011;59939;52.516;13.420;2023-03-22T08:46:19;23.63;;;13.00;;
72065;SDS011;59939;52.516;13.420;2023-03-22T08:49:24;18.07;;;9.63;;
72065;SDS011;59939;52.516;13.420;2023-03-22T08:52:36;22.60;;;14.88;;
72065;SDS011;59939;52.516;13.420;2023-03-22T08:56:02;24.13;;;14.40;;
72065;SDS011;59939;52.516;13.420;2023-03-22T08:59:18;25.53;;;13.20;;
72065;SDS011;59939;52.516;13.420;2023-03-22T09:02:43;28.33;;;14.25;;
72065;SDS011;59939;52.516;13.420;2023-03-22T09:05:47;19.63;;;12.63;;
72065;SDS011;59939;52.516;13.420;2023-03-22T09:08:52;21.13;;;12.00;;
72065;SDS011;59939;52.516;13.420;2023-03-22T09:12:10;25.17;;;13.43;;
72065;SDS011;59939;52.516;13.420;2023-03-22T09:15:14;22.40;;;12.15;;
72065;SDS011;59939;52.516;13.420;2023-03-22T09:18:22;23.35;;;12.50;;
72065;SDS011;59939;52.516;13.420;2023-03-22T09:21:28;21.27;;;12.80;;
72065;SDS011;59939;52.516;13.420;2023-03-22T09:24:42;22.95;;;10.52;;
72065;SDS011;59939;52.516;13.420;2023-03-22T09:27:48;24.17;;;11.98;;
72065;SDS011;59939;52.516;13.420;2023-03-22T09:30:58;17.63;;;9.75;;
72065;SDS011;59939;52.516;13.420;2023-03-22T09:34:09;19.52;;;11.15;;
72065;SDS011;59939;52.516;13.420;2023-03-22T09:37:14;18.92;;;9.23;;
72065;SDS011;59939;52.516;13.420;2023-03-22T09:40:25;17.90;;;9.98;;
72065;SDS011;59939;52.516;13.420;2023-03-22T09:44:19;18.90;;;9.43;;
72065;SDS011;59939;52.516;13.420;2023-03-22T09:47:03;21.08;;;10.48;;
72065;SDS011;59939;52.516;13.420;2023-03-22T09:50:11;23.38;;;10.98;;
72065;SDS011;59939;52.516;13.420;2023-03-22T09:53:16;21.83;;;10.05;;
72065;SDS011;59939;52.516;13.420;2023-03-22T09:56:21;17.20;;;8.88;;
72065;SDS011;59939;52.516;13.420;2023-03-22T09:59:35;20.20;;;9.18;;
72065;SDS011;59939;52.516;13.420;2023-03-22T10:02:49;19.50;;;7.72;;
72065;SDS011;59939;52.516;13.420;2023-03-22T10:06:00;18.75;;;9.35;;
72065;SDS011;59939;52.516;13.420;2023-03-22T10:12:28;15.75;;;8.68;;
72065;SDS011;59939;52.516;13.420;2023-03-22T10:15:37;19.02;;;9.38;;
72065;SDS011;59939;52.516;13.420;2023-03-22T10:18:45;15.15;;;7.28;;
72065;SDS011;59939;52.516;13.420;2023-03-22T10:21:51;14.80;;;5.60;;
72065;SDS011;59939;52.516;13.420;2023-03-22T10:24:57;16.52;;;9.00;;
72065;SDS011;59939;52.516;13.420;2023-03-22T10:28:09;16.77;;;8.13;;
72065;SDS011;59939;52.516;13.420;2023-03-22T10:31:16;16.08;;;8.63;;
72065;SDS011;59939;52.516;13.420;2023-03-22T10:34:21;15.88;;;8.10;;
72065;SDS011;59939;52.516;13.420;2023-03-22T10:37:38;17.35;;;7.45;;
72065;SDS011;59939;52.516;13.420;2023-03-22T10:40:49;17.27;;;7.90;;
72065;SDS011;59939;52.516;13.420;2023-03-22T10:43:56;19.42;;;7.85;;
72065;SDS011;59939;52.516;13.420;2023-03-22T10:47:01;17.48;;;7.03;;
72065;SDS011;59939;52.516;13.420;2023-03-22T10:50:15;14.63;;;5.97;;
72065;SDS011;59939;52.516;13.420;2023-03-22T10:56:31;15.70;;;7.10;;
72065;SDS011;59939;52.516;13.420;2023-03-22T10:59:48;15.88;;;5.95;;
72065;SDS011;59939;52.516;13.420;2023-03-22T11:02:57;14.50;;;5.55;;
72065;SDS011;59939;52.516;13.420;2023-03-22T11:06:04;16.80;;;7.50;;
72065;SDS011;59939;52.516;13.420;2023-03-22T11:09:10;19.45;;;7.40;;
72065;SDS011;59939;52.516;13.420;2023-03-22T11:12:16;15.55;;;6.40;;
72065;SDS011;59939;52.516;13.420;2023-03-22T11:15:30;15.73;;;6.35;;
72065;SDS011;59939;52.516;13.420;2023-03-22T11:18:34;13.63;;;5.13;;
72065;SDS011;59939;52.516;13.420;2023-03-22T11:21:39;12.80;;;5.55;;
72065;SDS011;59939;52.516;13.420;2023-03-22T11:24:45;13.43;;;5.50;;
72065;SDS011;59939;52.516;13.420;2023-03-22T11:27:53;15.18;;;6.70;;
72065;SDS011;59939;52.516;13.420;2023-03-22T11:31:06;22.20;;;7.03;;
72065;SDS011;59939;52.516;13.420;2023-03-22T11:34:14;15.43;;;5.80;;
72065;SDS011;59939;52.516;13.420;2023-03-22T11:37:19;12.63;;;4.90;;
72065;SDS011;59939;52.516;13.420;2023-03-22T11:40:26;9.70;;;3.97;;
72065;SDS011;59939;52.516;13.420;2023-03-22T11:43:34;11.77;;;4.78;;
72065;SDS011;59939;52.516;13.420;2023-03-22T11:46:39;13.50;;;5.13;;
72065;SDS011;59939;52.516;13.420;2023-03-22T11:49:50;13.48;;;5.20;;
72065;SDS011;59939;52.516;13.420;2023-03-22T11:52:54;12.60;;;4.40;;
72065;SDS011;59939;52.516;13.420;2023-03-22T11:56:00;16.65;;;4.38;;
72065;SDS011;59939;52.516;13.420;2023-03-22T11:59:12;11.02;;;3.80;;
72065;SDS011;59939;52.516;13.420;2023-03-22T12:02:18;12.88;;;4.57;;
72065;SDS011;59939;52.516;13.420;2023-03-22T12:05:24;8.98;;;3.42;;
72065;SDS011;59939;52.516;13.420;2023-03-22T12:08:41;10.60;;;4.45;;
72065;SDS011;59939;52.516;13.420;2023-03-22T12:11:49;11.55;;;4.00;;
72065;SDS011;59939;52.516;13.420;2023-03-22T12:14:56;11.18;;;3.50;;
72065;SDS011;59939;52.516;13.420;2023-03-22T12:18:12;8.73;;;3.55;;
72065;SDS011;59939;52.516;13.420;2023-03-22T12:21:17;9.27;;;3.80;;
72065;SDS011;59939;52.516;13.420;2023-03-22T12:24:26;9.77;;;3.72;;
72065;SDS011;59939;52.516;13.420;2023-03-22T12:27:38;11.82;;;4.38;;
72065;SDS011;59939;52.516;13.420;2023-03-22T12:30:45;14.43;;;4.72;;
72065;SDS011;59939;52.516;13.420;2023-03-22T12:33:52;9.80;;;3.90;;
72065;SDS011;59939;52.516;13.420;2023-03-22T12:36:56;11.02;;;4.00;;
72065;SDS011;59939;52.516;13.420;2023-03-22T12:43:34;13.85;;;5.07;;
72065;SDS011;59939;52.516;13.420;2023-03-22T12:46:47;11.73;;;5.18;;
72065;SDS011;59939;52.516;13.420;2023-03-22T12:50:14;12.18;;;4.80;;
72065;SDS011;59939;52.516;13.420;2023-03-22T12:53:19;14.25;;;4.07;;
72065;SDS011;59939;52.516;13.420;2023-03-22T12:56:26;10.57;;;3.75;;
72065;SDS011;59939;52.516;13.420;2023-03-22T12:59:31;12.80;;;3.50;;
72065;SDS011;59939;52.516;13.420;2023-03-22T13:02:35;12.00;;;3.80;;
72065;SDS011;59939;52.516;13.420;2023-03-22T13:05:40;11.07;;;3.65;;
72065;SDS011;59939;52.516;13.420;2023-03-22T13:09:47;7.28;;;3.00;;
72065;SDS011;59939;52.516;13.420;2023-03-22T13:15:37;5.70;;;2.28;;
72065;SDS011;59939;52.516;13.420;2023-03-22T13:25:30;9.27;;;2.72;;
72065;SDS011;59939;52.516;13.420;2023-03-22T13:28:38;5.05;;;2.08;;
72065;SDS011;59939;52.516;13.420;2023-03-22T13:31:53;10.50;;;2.90;;
72065;SDS011;59939;52.516;13.420;2023-03-22T13:34:57;5.90;;;2.15;;
72065;SDS011;59939;52.516;13.420;2023-03-22T13:38:05;9.93;;;3.15;;
72065;SDS011;59939;52.516;13.420;2023-03-22T13:41:16;13.88;;;3.30;;
72065;SDS011;59939;52.516;13.420;2023-03-22T13:44:27;13.15;;;3.30;;
72065;SDS011;59939;52.516;13.420;2023-03-22T13:47:33;10.07;;;2.85;;
72065;SDS011;59939;52.516;13.420;2023-03-22T13:50:37;10.55;;;2.38;;
72065;SDS011;59939;52.516;13.420;2023-03-22T13:53:45;8.52;;;3.20;;
72065;SDS011;59939;52.516;13.420;2023-03-22T13:56:59;7.60;;;2.70;;
72065;SDS011;59939;52.516;13.420;2023-03-22T14:03:27;7.05;;;2.30;;
72065;SDS011;59939;52.516;13.420;2023-03-22T14:06:36;7.93;;;2.90;;
72065;SDS011;59939;52.516;13.420;2023-03-22T14:09:47;8.85;;;3.15;;
72065;SDS011;59939;52.516;13.420;2023-03-22T14:12:56;8.43;;;3.08;;
72065;SDS011;59939;52.516;13.420;2023-03-22T14:16:16;9.55;;;3.10;;
72065;SDS011;59939;52.516;13.420;2023-03-22T14:19:22;5.15;;;2.40;;
72065;SDS011;59939;52.516;13.420;2023-03-22T14:22:34;5.15;;;2.38;;
72065;SDS011;59939;52.516;13.420;2023-03-22T14:25:39;11.13;;;2.90;;
72065;SDS011;59939;52.516;13.420;2023-03-22T14:28:43;6.47;;;2.58;;
72065;SDS011;59939;52.516;13.420;2023-03-22T14:31:53;6.47;;;2.20;;
72065;SDS011;59939;52.516;13.420;2023-03-22T14:35:02;5.68;;;2.78;;
72065;SDS011;59939;52.516;13.420;2023-03-22T14:38:11;9.55;;;2.10;;
72065;SDS011;59939;52.516;13.420;2023-03-22T14:41:17;4.68;;;2.20;;
72065;SDS011;59939;52.516;13.420;2023-03-22T14:44:20;5.78;;;2.03;;
72065;SDS011;59939;52.516;13.420;2023-03-22T14:47:25;6.85;;;2.20;;
72065;SDS011;59939;52.516;13.420;2023-03-22T14:50:30;5.00;;;1.73;;
72065;SDS011;59939;52.516;13.420;2023-03-22T14:53:36;8.68;;;2.20;;
72065;SDS011;59939;52.516;13.420;2023-03-22T14:56:40;9.55;;;2.50;;
72065;SDS011;59939;52.516;13.420;2023-03-22T14:59:45;7.13;;;2.08;;
72065;SDS011;59939;52.516;13.420;2023-03-22T15:02:49;4.75;;;2.05;;
72065;SDS011;59939;52.516;13.420;2023-03-22T15:05:55;5.15;;;2.00;;
72065;SDS011;59939;52.516;13.420;2023-03-22T15:09:05;10.18;;;2.70;;
72065;SDS011;59939;52.516;13.420;2023-03-22T15:12:08;5.78;;;2.33;;
72065;SDS011;59939;52.516;13.420;2023-03-22T15:15:12;5.20;;;1.88;;
72065;SDS011;59939;52.516;13.420;2023-03-22T15:18:17;6.57;;;1.92;;
72065;SDS011;59939;52.516;13.420;2023-03-22T15:21:20;6.93;;;2.17;;
72065;SDS011;59939;52.516;13.420;2023-03-22T15:24:28;9.63;;;2.17;;
72065;SDS011;59939;52.516;13.420;2023-03-22T15:27:31;4.85;;;2.10;;
72065;SDS011;59939;52.516;13.420;2023-03-22T15:30:35;4.95;;;1.80;;
72065;SDS011;59939;52.516;13.420;2023-03-22T15:33:38;8.68;;;2.53;;
72065;SDS011;59939;52.516;13.420;2023-03-22T15:36:40;9.70;;;2.92;;
72065;SDS011;59939;52.516;13.420;2023-03-22T15:39:47;9.57;;;2.28;;
72065;SDS011;59939;52.516;13.420;2023-03-22T15:42:51;5.82;;;2.42;;
72065;SDS011;59939;52.516;13.420;2023-03-22T15:52:35;7.38;;;2.28;;
72065;SDS011;59939;52.516;13.420;2023-03-22T15:55:38;9.68;;;2.60;;
72065;SDS011;59939;52.516;13.420;2023-03-22T15:58:50;3.17;;;1.52;;
72065;SDS011;59939;52.516;13.420;2023-03-22T16:01:57;5.03;;;2.10;;
72065;SDS011;59939;52.516;13.420;2023-03-22T16:05:00;5.22;;;2.08;;
72065;SDS011;59939;52.516;13.420;2023-03-22T16:08:04;5.55;;;2.30;;
72065;SDS011;59939;52.516;13.420;2023-03-22T16:11:08;9.32;;;2.50;;
72065;SDS011;59939;52.516;13.420;2023-03-22T16:14:13;11.38;;;2.85;;
72065;SDS011;59939;52.516;13.420;2023-03-22T16:17:17;7.00;;;2.30;;
72065;SDS011;59939;52.516;13.420;2023-03-22T16:20:20;12.55;;;3.20;;
72065;SDS011;59939;52.516;13.420;2023-03-22T16:23:23;9.35;;;3.78;;
72065;SDS011;59939;52.516;13.420;2023-03-22T16:26:27;7.38;;;2.28;;
72065;SDS011;59939;52.516;13.420;2023-03-22T16:29:30;6.53;;;2.30;;
72065;SDS011;59939;52.516;13.420;2023-03-22T16:32:34;3.97;;;2.03;;
72065;SDS011;59939;52.516;13.420;2023-03-22T16:35:37;5.68;;;1.95;;
72065;SDS011;59939;52.516;13.420;2023-03-22T16:38:40;6.93;;;2.17;;
72065;SDS011;59939;52.516;13.420;2023-03-22T16:41:43;6.65;;;1.85;;
72065;SDS011;59939;52.516;13.420;2023-03-22T16:44:47;5.40;;;1.85;;
72065;SDS011;59939;52.516;13.420;2023-03-22T16:47:51;6.10;;;1.73;;
72065;SDS011;59939;52.516;13.420;2023-03-22T16:50:55;5.28;;;1.83;;
72065;SDS011;59939;52.516;13.420;2023-03-22T16:53:58;4.63;;;1.83;;
72065;SDS011;59939;52.516;13.420;2023-03-22T16:57:01;7.28;;;2.20;;
72065;SDS011;59939;52.516;13.420;2023-03-22T17:00:05;4.22;;;1.73;;
72065;SDS011;59939;52.516;13.420;2023-03-22T17:03:11;9.30;;;1.92;;
72065;SDS011;59939;52.516;13.420;2023-03-22T17:06:18;5.53;;;1.67;;
72065;SDS011;59939;52.516;13.420;2023-03-22T17:09:22;7.07;;;1.60;;
72065;SDS011;59939;52.516;13.420;2023-03-22T17:12:26;6.32;;;1.65;;
72065;SDS011;59939;52.516;13.420;2023-03-22T17:15:40;5.38;;;1.80;;
72065;SDS011;59939;52.516;13.420;2023-03-22T17:18:44;7.10;;;2.05;;
72065;SDS011;59939;52.516;13.420;2023-03-22T17:21:46;4.68;;;1.55;;
72065;SDS011;59939;52.516;13.420;2023-03-22T17:24:49;5.68;;;1.95;;
72065;SDS011;59939;52.516;13.420;2023-03-22T17:27:52;7.55;;;2.10;;
72065;SDS011;59939;52.516;13.420;2023-03-22T17:30:55;7.32;;;2.20;;
72065;SDS011;59939;52.516;13.420;2023-03-22T17:33:58;6.18;;;2.00;;
72065;SDS011;59939;52.516;13.420;2023-03-22T17:37:01;7.70;;;2.10;;
72065;SDS011;59939;52.516;13.420;2023-03-22T17:40:07;7.90;;;2.08;;
72065;SDS011;59939;52.516;13.420;2023-03-22T17:43:10;5.10;;;1.85;;
72065;SDS011;59939;52.516;13.420;2023-03-22T17:46:13;5.82;;;1.90;;
72065;SDS011;59939;52.516;13.420;2023-03-22T17:49:16;7.28;;;1.95;;
72065;SDS011;59939;52.516;13.420;2023-03-22T17:52:19;7.90;;;2.20;;
72065;SDS011;59939;52.516;13.420;2023-03-22T17:55:23;5.28;;;2.63;;
72065;SDS011;59939;52.516;13.420;2023-03-22T17:58:25;5.80;;;2.13;;
72065;SDS011;59939;52.516;13.420;2023-03-22T18:01:29;12.48;;;2.25;;
72065;SDS011;59939;52.516;13.420;2023-03-22T18:04:33;9.52;;;2.30;;
72065;SDS011;59939;52.516;13.420;2023-03-22T18:07:37;7.20;;;2.65;;
72065;SDS011;59939;52.516;13.420;2023-03-22T18:10:40;9.23;;;2.53;;
72065;SDS011;59939;52.516;13.420;2023-03-22T18:13:43;7.90;;;2.28;;
72065;SDS011;59939;52.516;13.420;2023-03-22T18:16:46;7.80;;;2.55;;
72065;SDS011;59939;52.516;13.420;2023-03-22T18:19:50;5.90;;;2.30;;
72065;SDS011;59939;52.516;13.420;2023-03-22T18:22:53;7.45;;;2.35;;
72065;SDS011;59939;52.516;13.420;2023-03-22T18:25:57;6.72;;;2.00;;
72065;SDS011;59939;52.516;13.420;2023-03-22T18:29:00;13.65;;;3.22;;
72065;SDS011;59939;52.516;13.420;2023-03-22T18:32:04;4.68;;;1.92;;
72065;SDS011;59939;52.516;13.420;2023-03-22T18:35:07;6.55;;;2.38;;
72065;SDS011;59939;52.516;13.420;2023-03-22T18:38:10;7.00;;;2.33;;
72065;SDS011;59939;52.516;13.420;2023-03-22T18:41:14;5.82;;;2.33;;
72065;SDS011;59939;52.516;13.420;2023-03-22T18:44:18;8.50;;;2.20;;
72065;SDS011;59939;52.516;13.420;2023-03-22T18:47:20;3.75;;;2.10;;
72065;SDS011;59939;52.516;13.420;2023-03-22T18:50:23;7.85;;;2.40;;
72065;SDS011;59939;52.516;13.420;2023-03-22T18:53:26;7.90;;;2.35;;
72065;SDS011;59939;52.516;13.420;2023-03-22T18:56:29;9.30;;;3.20;;
72065;SDS011;59939;52.516;13.420;2023-03-22T18:59:32;6.72;;;2.70;;
72065;SDS011;59939;52.516;13.420;2023-03-22T19:02:36;6.55;;;2.15;;
72065;SDS011;59939;52.516;13.420;2023-03-22T19:05:40;7.85;;;2.67;;
72065;SDS011;59939;52.516;13.420;2023-03-22T19:08:44;7.13;;;2.63;;
72065;SDS011;59939;52.516;13.420;2023-03-22T19:11:50;10.90;;;2.80;;